createdAt,value
2022-08-04T00:00:58.198Z,98439.00
2022-08-04T00:03:29.158Z,98439.00
2022-08-04T00:06:01.494Z,98437.00
2022-08-04T00:08:40.242Z,98432.00
2022-08-04T00:11:15.194Z,98435.00
2022-08-04T00:13:52.638Z,98434.00
2022-08-04T00:16:31.316Z,98445.00
2022-08-04T00:19:04.616Z,98437.00
2022-08-04T00:21:33.099Z,98444.00
2022-08-04T00:24:12.051Z,98434.00
2022-08-04T00:26:41.351Z,98436.00
2022-08-04T00:29:10.912Z,98439.00
2022-08-04T00:31:54.080Z,98432.00
2022-08-04T00:34:26.272Z,98444.00
2022-08-04T00:36:54.783Z,98441.00
2022-08-04T00:39:23.092Z,98438.00
2022-08-04T00:41:58.600Z,98442.00
2022-08-04T00:44:32.228Z,98442.00
2022-08-04T00:47:07.125Z,98438.00
2022-08-04T00:50:03.959Z,98441.00
2022-08-04T00:52:40.824Z,98446.00
2022-08-04T00:55:29.290Z,98446.00
2022-08-04T00:58:18.843Z,98432.00
2022-08-04T01:00:50.397Z,98435.00
2022-08-04T01:03:25.777Z,98449.00
2022-08-04T01:05:58.934Z,98449.00
2022-08-04T01:08:41.058Z,98445.00
2022-08-04T01:11:14.871Z,98446.00
2022-08-04T01:13:53.373Z,98449.00
2022-08-04T01:16:25.938Z,98447.00
2022-08-04T01:18:58.881Z,98449.00
2022-08-04T01:21:51.436Z,98456.00
2022-08-04T01:24:27.196Z,98451.00
2022-08-04T01:26:59.116Z,98448.00
2022-08-04T01:29:43.859Z,98449.00
2022-08-04T01:32:21.065Z,98444.00
2022-08-04T01:34:54.858Z,98449.00
2022-08-04T01:37:28.682Z,98449.00
2022-08-04T01:40:02.176Z,98449.00
2022-08-04T01:42:32.219Z,98441.00
2022-08-04T01:45:04.852Z,98446.00
2022-08-04T01:47:35.378Z,98438.00
2022-08-04T01:50:08.602Z,98444.00
2022-08-04T01:52:37.315Z,98446.00
2022-08-04T01:55:07.419Z,98451.00
2022-08-04T01:57:37.627Z,98449.00
2022-08-04T02:00:10.361Z,98448.00
2022-08-04T02:02:38.595Z,98449.00
2022-08-04T02:05:07.288Z,98453.00
2022-08-04T02:07:51.891Z,98450.00
2022-08-04T02:10:25.625Z,98444.00
2022-08-04T02:13:00.976Z,98451.00
2022-08-04T02:15:32.388Z,98446.00
2022-08-04T02:18:05.422Z,98452.00
2022-08-04T02:20:37.161Z,98450.00
2022-08-04T02:23:06.526Z,98450.00
2022-08-04T02:25:38.347Z,98453.00
2022-08-04T02:28:14.350Z,98448.00
2022-08-04T02:30:48.153Z,98445.00
2022-08-04T02:33:19.317Z,98443.00
2022-08-04T02:35:47.648Z,98441.00
2022-08-04T02:38:25.789Z,98439.00
2022-08-04T02:40:56.429Z,98446.00
2022-08-04T02:43:51.836Z,98449.00
2022-08-04T02:46:17.732Z,98443.00
2022-08-04T02:48:47.770Z,98442.00
2022-08-04T02:51:16.728Z,98439.00
2022-08-04T02:53:45.074Z,98441.00
2022-08-04T02:56:13.266Z,98436.00
2022-08-04T02:58:41.464Z,98439.00
2022-08-04T03:01:09.740Z,98435.00
2022-08-04T03:03:41.909Z,98432.00
2022-08-04T03:06:29.853Z,98438.00
2022-08-04T03:09:07.556Z,98446.00
2022-08-04T03:12:01.593Z,98442.00
2022-08-04T03:14:58.952Z,98447.00
2022-08-04T03:17:52.893Z,98436.00
2022-08-04T03:20:39.966Z,98438.00
2022-08-04T03:23:43.503Z,98438.00
2022-08-04T03:26:52.884Z,98440.00
2022-08-04T03:29:57.696Z,98442.00
2022-08-04T03:33:07.222Z,98428.00
2022-08-04T03:36:03.654Z,98438.00
2022-08-04T03:38:44.629Z,98444.00
2022-08-04T03:41:57.369Z,98442.00
2022-08-04T03:45:23.242Z,98448.00
2022-08-04T03:48:11.049Z,98448.00
2022-08-04T03:51:34.849Z,98436.00
2022-08-04T03:54:19.683Z,98440.00
2022-08-04T03:57:04.282Z,98434.00
2022-08-04T03:59:51.604Z,98438.00
2022-08-04T04:02:59.394Z,98438.00
2022-08-04T04:06:02.368Z,98445.00
2022-08-04T04:08:54.325Z,98446.00
2022-08-04T04:11:34.910Z,98442.00
2022-08-04T04:14:33.722Z,98448.00
2022-08-04T04:17:23.171Z,98450.00
2022-08-04T04:20:32.803Z,98447.00
2022-08-04T04:23:16.643Z,98441.00
2022-08-04T04:25:52.437Z,98445.00
2022-08-04T04:29:03.214Z,98445.00
2022-08-04T04:31:38.173Z,98440.00
2022-08-04T04:34:21.376Z,98445.00
2022-08-04T04:36:56.062Z,98450.00
2022-08-04T04:39:30.138Z,98451.00
2022-08-04T04:42:12.968Z,98456.00
2022-08-04T04:45:02.937Z,98459.00
2022-08-04T04:47:43.129Z,98457.00
2022-08-04T04:50:32.556Z,98466.00
2022-08-04T04:53:07.816Z,98458.00
2022-08-04T04:55:42.982Z,98460.00
2022-08-04T04:58:16.485Z,98459.00
2022-08-04T05:00:52.492Z,98452.00
2022-08-04T05:03:30.463Z,98458.00
2022-08-04T05:06:11.861Z,98465.00
2022-08-04T05:09:05.059Z,98466.00
2022-08-04T05:11:49.907Z,98462.00
2022-08-04T05:14:38.055Z,98454.00
2022-08-04T05:17:14.776Z,98460.00
2022-08-04T05:19:48.528Z,98464.00
2022-08-04T05:22:19.856Z,98464.00
2022-08-04T05:24:48.036Z,98462.00
2022-08-04T05:27:18.347Z,98461.00
2022-08-04T05:29:54.159Z,98459.00
2022-08-04T05:32:26.212Z,98462.00
2022-08-04T05:34:57.547Z,98461.00
2022-08-04T05:37:28.392Z,98460.00
2022-08-04T05:39:59.595Z,98460.00
2022-08-04T05:42:27.721Z,98459.00
2022-08-04T05:44:57.306Z,98457.00
2022-08-04T05:47:25.581Z,98461.00
2022-08-04T05:50:01.643Z,98458.00
2022-08-04T05:52:30.787Z,98461.00
2022-08-04T05:54:59.135Z,98461.00
2022-08-04T05:57:30.345Z,98467.00
2022-08-04T06:00:00.938Z,98467.00
2022-08-04T06:02:29.245Z,98469.00
2022-08-04T06:04:57.492Z,98479.00
2022-08-04T06:07:27.142Z,98477.00
2022-08-04T06:09:55.262Z,98482.00
2022-08-04T06:12:27.393Z,98472.00
2022-08-04T06:14:59.357Z,98469.00
2022-08-04T06:19:57.314Z,98479.00
2022-08-04T06:20:23.447Z,98475.00
2022-08-04T06:22:54.422Z,98476.00
2022-08-04T06:25:25.627Z,98465.00
2022-08-04T06:27:53.899Z,98464.00
2022-08-04T06:30:26.286Z,98457.00
2022-08-04T06:33:03.847Z,98458.00
2022-08-04T06:35:33.349Z,98468.00
2022-08-04T06:38:02.087Z,98469.00
2022-08-04T06:40:33.336Z,98467.00
2022-08-04T06:43:02.479Z,98460.00
2022-08-04T06:45:30.722Z,98461.00
2022-08-04T06:48:00.309Z,98460.00
2022-08-04T06:51:29.425Z,98464.00
2022-08-04T06:53:17.002Z,98453.00
2022-08-04T06:55:46.277Z,98467.00
2022-08-04T06:58:14.614Z,98463.00
2022-08-04T07:00:43.453Z,98463.00
2022-08-04T07:03:13.075Z,98468.00
2022-08-04T07:05:41.483Z,98473.00
2022-08-04T07:08:10.920Z,98466.00
2022-08-04T07:10:39.219Z,98459.00
2022-08-04T07:13:07.644Z,98466.00
2022-08-04T07:15:35.939Z,98460.00
2022-08-04T07:18:05.257Z,98461.00
2022-08-04T07:20:36.819Z,98458.00
2022-08-04T07:23:05.488Z,98461.00
2022-08-04T07:25:58.585Z,98447.00
2022-08-04T07:28:23.013Z,98446.00
2022-08-04T07:30:51.385Z,98452.00
2022-08-04T07:33:19.599Z,98446.00
2022-08-04T07:36:05.625Z,98449.00
2022-08-04T07:38:48.214Z,98450.00
2022-08-04T07:41:37.572Z,98447.00
2022-08-04T07:44:06.253Z,98447.00
2022-08-04T07:46:34.463Z,98446.00
2022-08-04T07:49:02.669Z,98445.00
2022-08-04T07:51:32.330Z,98446.00
2022-08-04T07:54:00.601Z,98440.00
2022-08-04T07:56:29.804Z,98447.00
2022-08-04T07:59:01.269Z,98437.00
2022-08-04T08:01:29.636Z,98446.00
2022-08-04T08:03:58.602Z,98442.00
2022-08-04T08:06:33.326Z,98436.00
2022-08-04T08:09:12.951Z,98435.00
2022-08-04T08:12:35.643Z,98443.00
2022-08-04T08:14:30.654Z,98434.00
2022-08-04T08:17:00.136Z,98432.00
2022-08-04T08:19:28.409Z,98433.00
2022-08-04T08:21:59.724Z,98434.00
2022-08-04T08:24:29.874Z,98426.00
2022-08-04T08:26:58.287Z,98435.00
2022-08-04T08:29:26.886Z,98438.00
2022-08-04T08:31:57.606Z,98439.00
2022-08-04T08:34:28.066Z,98431.00
2022-08-04T08:37:00.493Z,98424.00
2022-08-04T08:39:37.585Z,98424.00
2022-08-04T08:43:00.077Z,98431.00
2022-08-04T08:45:55.233Z,98428.00
2022-08-04T08:48:35.055Z,98429.00
2022-08-04T08:51:22.053Z,98432.00
2022-08-04T08:53:56.146Z,98423.00
2022-08-04T08:56:32.954Z,98432.00
2022-08-04T08:59:15.246Z,98434.00
2022-08-04T09:01:51.372Z,98422.00
2022-08-04T09:04:37.453Z,98425.00
2022-08-04T09:07:24.862Z,98420.00
2022-08-04T09:10:05.555Z,98416.00
2022-08-04T09:12:39.500Z,98419.00
2022-08-04T09:15:13.195Z,98421.00
2022-08-04T09:17:43.321Z,98423.00
2022-08-04T09:20:15.319Z,98421.00
2022-08-04T09:22:46.182Z,98422.00
2022-08-04T09:25:18.053Z,98417.00
2022-08-04T09:27:52.691Z,98415.00
2022-08-04T09:30:21.888Z,98412.00
2022-08-04T09:32:58.214Z,98411.00
2022-08-04T09:35:34.785Z,98412.00
2022-08-04T09:38:07.344Z,98401.00
2022-08-04T09:40:53.364Z,98408.00
2022-08-04T09:44:42.788Z,98413.00
2022-08-04T09:46:28.311Z,98418.00
2022-08-04T09:48:58.972Z,98405.00
2022-08-04T09:51:57.474Z,98408.00
2022-08-04T09:54:30.396Z,98403.00
2022-08-04T09:57:02.472Z,98401.00
2022-08-04T09:59:37.103Z,98406.00
2022-08-04T10:02:07.773Z,98402.00
2022-08-04T10:04:36.589Z,98405.00
2022-08-04T10:07:11.212Z,98395.00
2022-08-04T10:09:53.657Z,98392.00
2022-08-04T10:12:33.210Z,98385.00
2022-08-04T10:15:11.070Z,98384.00
2022-08-04T10:17:52.532Z,98378.00
2022-08-04T10:20:33.898Z,98383.00
2022-08-04T10:23:13.828Z,98383.00
2022-08-04T10:26:05.876Z,98382.00
2022-08-04T10:28:39.222Z,98375.00
2022-08-04T10:31:10.833Z,98377.00
2022-08-04T10:33:42.886Z,98366.00
2022-08-04T10:36:11.525Z,98371.00
2022-08-04T10:38:43.660Z,98371.00
2022-08-04T10:41:13.773Z,98363.00
2022-08-04T10:43:45.715Z,98373.00
2022-08-04T10:46:17.838Z,98371.00
2022-08-04T10:48:59.119Z,98364.00
2022-08-04T10:51:29.775Z,98352.00
2022-08-04T10:54:01.406Z,98366.00
2022-08-04T10:56:33.455Z,98365.00
2022-08-04T10:59:04.553Z,98365.00
2022-08-04T11:01:59.463Z,98357.00
2022-08-04T11:04:28.001Z,98357.00
2022-08-04T11:06:56.833Z,98348.00
2022-08-04T11:09:25.018Z,98348.00
2022-08-04T11:12:00.833Z,98351.00
2022-08-04T11:14:32.832Z,98353.00
2022-08-04T11:17:05.181Z,98346.00
2022-08-04T11:19:44.945Z,98343.00
2022-08-04T11:22:20.730Z,98344.00
2022-08-04T11:24:53.850Z,98350.00
2022-08-04T11:27:27.843Z,98328.00
2022-08-04T11:30:01.689Z,98339.00
2022-08-04T11:32:35.921Z,98334.00
2022-08-04T11:35:07.498Z,98343.00
2022-08-04T11:37:43.991Z,98337.00
2022-08-04T11:40:14.011Z,98335.00
2022-08-04T11:42:44.273Z,98334.00
2022-08-04T11:45:14.889Z,98339.00
2022-08-04T11:47:47.702Z,98328.00
2022-08-04T11:50:20.430Z,98334.00
2022-08-04T11:52:48.943Z,98337.00
2022-08-04T11:55:19.465Z,98337.00
2022-08-04T11:57:54.068Z,98329.00
2022-08-04T12:00:22.647Z,98335.00
2022-08-04T12:03:13.525Z,98332.00
2022-08-04T12:05:45.425Z,98330.00
2022-08-04T12:08:23.316Z,98322.00
2022-08-04T12:11:00.486Z,98330.00
2022-08-04T12:13:29.838Z,98320.00
2022-08-04T12:16:03.663Z,98324.00
2022-08-04T12:18:35.863Z,98309.00
2022-08-04T12:21:07.209Z,98314.00
2022-08-04T12:23:39.531Z,98311.00
2022-08-04T12:26:08.717Z,98305.00
2022-08-04T12:29:07.322Z,98305.00
2022-08-04T12:31:28.420Z,98304.00
2022-08-04T12:34:04.812Z,98305.00
2022-08-04T12:36:37.590Z,98294.00
2022-08-04T12:39:10.697Z,98293.00
2022-08-04T12:41:41.807Z,98304.00
2022-08-04T12:44:37.268Z,98295.00
2022-08-04T12:47:27.160Z,98296.00
2022-08-04T12:49:59.991Z,98296.00
2022-08-04T12:53:01.116Z,98284.00
2022-08-04T12:55:18.642Z,98285.00
2022-08-04T12:57:46.943Z,98279.00
2022-08-04T13:00:29.297Z,98281.00
2022-08-04T13:03:01.302Z,98278.00
2022-08-04T13:05:31.246Z,98274.00
2022-08-04T13:07:59.562Z,98282.00
2022-08-04T13:10:30.540Z,98278.00
2022-08-04T13:13:00.301Z,98273.00
2022-08-04T13:15:30.873Z,98266.00
2022-08-04T13:18:00.909Z,98261.00
2022-08-04T13:20:31.773Z,98262.00
2022-08-04T13:23:02.099Z,98260.00
2022-08-04T13:26:44.450Z,98263.00
2022-08-04T13:28:21.656Z,98249.00
2022-08-04T13:30:50.757Z,98255.00
2022-08-04T13:33:20.154Z,98245.00
2022-08-04T13:35:55.217Z,98252.00
2022-08-04T13:38:24.444Z,98246.00
2022-08-04T13:40:52.617Z,98238.00
2022-08-04T13:44:15.694Z,98236.00
2022-08-04T13:46:15.778Z,98226.00
2022-08-04T13:49:23.701Z,98234.00
2022-08-04T13:51:57.259Z,98225.00
2022-08-04T13:54:30.467Z,98222.00
2022-08-04T13:57:00.840Z,98229.00
2022-08-04T13:59:29.524Z,98234.00
2022-08-04T14:02:00.973Z,98224.00
2022-08-04T14:04:29.358Z,98224.00
2022-08-04T14:07:04.708Z,98229.00
2022-08-04T14:10:04.067Z,98215.00
2022-08-04T14:12:45.234Z,98220.00
2022-08-04T14:16:02.261Z,98206.00
2022-08-04T14:18:28.800Z,98205.00
2022-08-04T14:21:04.500Z,98211.00
2022-08-04T14:23:46.950Z,98202.00
2022-08-04T14:26:17.373Z,98206.00
2022-08-04T14:29:27.574Z,98200.00
2022-08-04T14:31:34.055Z,98202.00
2022-08-04T14:34:09.558Z,98200.00
2022-08-04T14:37:17.605Z,98190.00
2022-08-04T14:39:41.280Z,98194.00
2022-08-04T14:42:09.656Z,98186.00
2022-08-04T14:44:56.208Z,98191.00
2022-08-04T14:47:40.775Z,98193.00
2022-08-04T14:50:09.781Z,98183.00
2022-08-04T14:52:38.229Z,98177.00
2022-08-04T14:55:23.569Z,98176.00
2022-08-04T14:58:36.010Z,98176.00
2022-08-04T15:00:40.855Z,98176.00
2022-08-04T15:03:09.702Z,98180.00
2022-08-04T15:06:00.151Z,98187.00
2022-08-04T15:08:31.383Z,98183.00
2022-08-04T15:11:03.114Z,98177.00
2022-08-04T15:13:32.187Z,98175.00
2022-08-04T15:16:07.236Z,98179.00
2022-08-04T15:18:39.552Z,98178.00
2022-08-04T15:21:08.377Z,98181.00
2022-08-04T15:23:38.492Z,98169.00
2022-08-04T15:26:11.566Z,98170.00
2022-08-04T15:28:40.942Z,98167.00
2022-08-04T15:31:59.654Z,98173.00
2022-08-04T15:33:57.775Z,98170.00
2022-08-04T15:36:31.920Z,98162.00
2022-08-04T15:39:03.841Z,98164.00
2022-08-04T15:41:36.729Z,98155.00
2022-08-04T15:44:26.262Z,98160.00
2022-08-04T15:47:13.608Z,98153.00
2022-08-04T15:49:41.850Z,98151.00
2022-08-04T15:52:11.959Z,98153.00
2022-08-04T15:54:42.613Z,98154.00
2022-08-04T15:57:36.700Z,98156.00
2022-08-04T16:00:11.313Z,98152.00
2022-08-04T16:02:44.341Z,98150.00
2022-08-04T16:05:36.819Z,98148.00
2022-08-04T16:08:17.701Z,98151.00
2022-08-04T16:10:47.304Z,98141.00
2022-08-04T16:13:19.526Z,98145.00
2022-08-04T16:15:49.493Z,98141.00
2022-08-04T16:18:26.238Z,98144.00
2022-08-04T16:20:56.068Z,98144.00
2022-08-04T16:23:56.002Z,98149.00
2022-08-04T16:26:54.502Z,98140.00
2022-08-04T16:29:34.239Z,98136.00
2022-08-04T16:32:26.018Z,98145.00
2022-08-04T16:34:57.078Z,98129.00
2022-08-04T16:37:28.306Z,98130.00
2022-08-04T16:40:36.517Z,98139.00
2022-08-04T16:43:07.960Z,98130.00
2022-08-04T16:45:48.106Z,98124.00
2022-08-04T16:48:16.510Z,98122.00
2022-08-04T16:51:06.774Z,98112.00
2022-08-04T16:54:03.227Z,98114.00
2022-08-04T16:56:33.095Z,98119.00
2022-08-04T16:59:07.230Z,98114.00
2022-08-04T17:01:36.915Z,98111.00
2022-08-04T17:04:08.507Z,98108.00
2022-08-04T17:06:37.642Z,98107.00
2022-08-04T17:09:06.771Z,98106.00
2022-08-04T17:11:34.925Z,98110.00
2022-08-04T17:14:05.671Z,98111.00
2022-08-04T17:16:36.750Z,98107.00
2022-08-04T17:19:05.331Z,98106.00
2022-08-04T17:21:34.976Z,98106.00
2022-08-04T17:24:14.216Z,98103.00
2022-08-04T17:26:51.710Z,98106.00
2022-08-04T17:29:22.687Z,98102.00
2022-08-04T17:32:16.535Z,98093.00
2022-08-04T17:37:41.173Z,98094.00
2022-08-04T17:40:25.446Z,98107.00
2022-08-04T17:43:03.388Z,98095.00
2022-08-04T17:46:15.789Z,98089.00
2022-08-04T17:49:08.257Z,98094.00
2022-08-04T17:54:36.549Z,98094.00
2022-08-04T17:57:15.066Z,98096.00
2022-08-04T17:59:56.080Z,98101.00
2022-08-04T18:02:33.373Z,98108.00
2022-08-04T18:05:07.456Z,98104.00
2022-08-04T18:08:46.362Z,98090.00
2022-08-04T18:10:55.811Z,98091.00
2022-08-04T18:13:28.428Z,98099.00
2022-08-04T18:16:03.904Z,98095.00
2022-08-04T18:18:33.230Z,98102.00
2022-08-04T18:21:05.030Z,98105.00
2022-08-04T18:23:33.703Z,98104.00
2022-08-04T18:26:03.835Z,98108.00
2022-08-04T18:28:33.687Z,98092.00
2022-08-04T18:31:02.575Z,98101.00
2022-08-04T18:33:37.551Z,98102.00
2022-08-04T18:36:33.914Z,98098.00
2022-08-04T18:39:12.426Z,98110.00
2022-08-04T18:42:01.375Z,98107.00
2022-08-04T18:44:31.552Z,98112.00
2022-08-04T18:47:22.614Z,98108.00
2022-08-04T18:50:59.887Z,98108.00
2022-08-04T18:52:41.913Z,98114.00
2022-08-04T18:55:55.280Z,98120.00
2022-08-04T18:58:06.128Z,98124.00
2022-08-04T19:00:36.874Z,98121.00
2022-08-04T19:03:05.840Z,98121.00
2022-08-04T19:05:41.683Z,98124.00
2022-08-04T19:08:33.941Z,98121.00
2022-08-04T19:11:00.366Z,98126.00
2022-08-04T19:13:34.950Z,98131.00
2022-08-04T19:16:03.583Z,98128.00
2022-08-04T19:18:32.505Z,98144.00
2022-08-04T19:21:05.197Z,98138.00
2022-08-04T19:24:27.076Z,98142.00
2022-08-04T19:26:28.346Z,98147.00
2022-08-04T19:28:56.768Z,98150.00
2022-08-04T19:34:13.647Z,98150.00
2022-08-04T19:36:45.980Z,98156.00
2022-08-04T19:39:15.895Z,98155.00
2022-08-04T19:42:04.626Z,98150.00
2022-08-04T19:44:32.798Z,98162.00
2022-08-04T19:47:02.507Z,98152.00
2022-08-04T19:50:05.198Z,98162.00
2022-08-04T19:52:38.743Z,98155.00
2022-08-04T19:55:10.900Z,98168.00
2022-08-04T19:57:46.234Z,98166.00
2022-08-04T20:00:32.956Z,98166.00
2022-08-04T20:03:03.065Z,98173.00
2022-08-04T20:05:52.896Z,98172.00
2022-08-04T20:08:20.580Z,98170.00
2022-08-04T20:10:51.839Z,98176.00
2022-08-04T20:13:20.857Z,98174.00
2022-08-04T20:15:55.356Z,98176.00
2022-08-04T20:18:36.672Z,98181.00
2022-08-04T20:21:19.959Z,98179.00
2022-08-04T20:23:52.808Z,98177.00
2022-08-04T20:26:22.457Z,98178.00
2022-08-04T20:28:52.564Z,98181.00
2022-08-04T20:31:22.734Z,98177.00
2022-08-04T20:33:59.785Z,98178.00
2022-08-04T20:36:28.077Z,98181.00
2022-08-04T20:38:56.451Z,98182.00
2022-08-04T20:41:26.619Z,98184.00
2022-08-04T20:44:05.992Z,98184.00
2022-08-04T20:46:39.211Z,98183.00
2022-08-04T20:49:07.556Z,98181.00
2022-08-04T20:51:39.906Z,98183.00
2022-08-04T20:54:16.592Z,98179.00
2022-08-04T20:56:50.543Z,98175.00
2022-08-04T20:59:19.779Z,98173.00
2022-08-04T21:01:49.086Z,98169.00
2022-08-04T21:04:35.837Z,98176.00
2022-08-04T21:07:05.658Z,98174.00
2022-08-04T21:09:37.859Z,98166.00
2022-08-04T21:12:28.414Z,98176.00
2022-08-04T21:14:57.968Z,98176.00
2022-08-04T21:17:56.956Z,98175.00
2022-08-04T21:20:14.618Z,98169.00
2022-08-04T21:22:59.435Z,98179.00
2022-08-04T21:25:30.158Z,98181.00
2022-08-04T21:28:04.079Z,98178.00
2022-08-04T21:30:36.983Z,98178.00
2022-08-04T21:33:22.141Z,98178.00
2022-08-04T21:35:54.376Z,98177.00
2022-08-04T21:38:25.230Z,98181.00
2022-08-04T21:40:57.409Z,98175.00
2022-08-04T21:43:29.938Z,98174.00
2022-08-04T21:46:11.459Z,98181.00
2022-08-04T21:48:42.542Z,98178.00
2022-08-04T21:51:21.775Z,98180.00
2022-08-04T21:54:03.741Z,98177.00
2022-08-04T21:56:32.006Z,98179.00
2022-08-04T21:59:05.654Z,98185.00
2022-08-04T22:01:50.316Z,98184.00
2022-08-04T22:04:20.166Z,98178.00
2022-08-04T22:06:51.652Z,98183.00
2022-08-04T22:09:21.857Z,98191.00
2022-08-04T22:11:51.535Z,98185.00
2022-08-04T22:14:29.705Z,98190.00
2022-08-04T22:17:04.048Z,98188.00
2022-08-04T22:19:50.771Z,98186.00
2022-08-04T22:22:26.346Z,98186.00
2022-08-04T22:24:58.804Z,98185.00
2022-08-04T22:27:47.414Z,98189.00
2022-08-04T22:30:18.103Z,98180.00
2022-08-04T22:32:47.037Z,98181.00
2022-08-04T22:35:36.140Z,98178.00
2022-08-04T22:38:06.220Z,98171.00
2022-08-04T22:40:50.825Z,98173.00
2022-08-04T22:43:31.725Z,98168.00
2022-08-04T22:46:05.288Z,98167.00
2022-08-04T22:48:34.941Z,98158.00
2022-08-04T22:51:03.779Z,98164.00
2022-08-04T22:53:31.977Z,98152.00
2022-08-04T22:56:10.271Z,98166.00
2022-08-04T22:58:44.824Z,98169.00
2022-08-04T23:01:15.686Z,98165.00
2022-08-04T23:03:55.129Z,98152.00
2022-08-04T23:06:24.965Z,98156.00
2022-08-04T23:08:53.488Z,98156.00
2022-08-04T23:11:21.875Z,98156.00
2022-08-04T23:13:50.522Z,98163.00
2022-08-04T23:16:20.203Z,98159.00
2022-08-04T23:18:49.044Z,98167.00
2022-08-04T23:21:24.085Z,98159.00
2022-08-04T23:24:00.832Z,98162.00
2022-08-04T23:26:30.834Z,98155.00
2022-08-04T23:28:59.065Z,98160.00
2022-08-04T23:31:41.340Z,98156.00
2022-08-04T23:34:18.749Z,98157.00
2022-08-04T23:36:47.464Z,98165.00
2022-08-04T23:39:15.935Z,98157.00
2022-08-04T23:41:53.612Z,98161.00
2022-08-04T23:44:24.611Z,98149.00
2022-08-04T23:47:00.352Z,98143.00
2022-08-04T23:49:40.623Z,98153.00
2022-08-04T23:52:23.145Z,98149.00
2022-08-04T23:54:56.161Z,98154.00
2022-08-04T23:57:24.341Z,98144.00
2022-08-04T23:59:54.159Z,98143.00
